Time;durP1;ratioP1;P1;durP2;ratioP2;P2;SDS_P1;SDS_P2;PMS_P1;PMS_P2;Temp;Humidity;BMP_temperature;BMP_pressure;BME280_temperature;BME280_humidity;BME280_pressure;Samples;Min_cycle;Max_cycle;Signal;HPM_P1;HPM_P2
2021/01/31 00:02:15;;;;;;;1.83;1.63;;;16.50;99.90;;;;;;5071630;28;20513;-67
2021/01/31 00:04:48;;;;;;;2.78;1.60;;;16.40;99.90;;;;;;5071838;28;20025;-66
2021/01/31 00:07:15;;;;;;;1.63;1.52;;;16.40;99.90;;;;;;5071752;28;20036;-66
2021/01/31 00:09:41;;;;;;;2.13;1.70;;;16.50;99.90;;;;;;5071642;28;20031;-66
2021/01/31 00:12:08;;;;;;;1.90;1.40;;;16.40;99.90;;;;;;5072061;28;20468;-66
2021/01/31 00:14:34;;;;;;;6.22;1.88;;;16.40;99.90;;;;;;5071573;28;20021;-65
2021/01/31 00:16:59;;;;;;;1.80;1.67;;;16.40;99.90;;;;;;5072121;28;20047;-66
2021/01/31 00:19:25;;;;;;;3.08;1.80;;;16.40;99.90;;;;;;5071719;28;20017;-66
2021/01/31 00:21:57;;;;;;;2.45;1.45;;;16.40;99.90;;;;;;5071373;28;20108;-66
2021/01/31 00:24:22;;;;;;;2.50;1.65;;;16.40;99.90;;;;;;5071634;28;20028;-66
2021/01/31 00:26:48;;;;;;;2.10;1.70;;;16.40;99.90;;;;;;5071406;28;20025;-66
2021/01/31 00:29:13;;;;;;;2.78;1.63;;;16.40;99.90;;;;;;5071486;28;20067;-67
2021/01/31 00:31:42;;;;;;;2.08;1.60;;;16.40;99.90;;;;;;5070976;28;20024;-66
2021/01/31 00:34:08;;;;;;;2.13;1.92;;;16.30;99.90;;;;;;5071531;28;20549;-65
2021/01/31 00:36:34;;;;;;;2.20;1.50;;;16.30;99.90;;;;;;5071270;28;20028;-65
2021/01/31 00:39:00;;;;;;;2.17;1.60;;;16.30;99.90;;;;;;5071868;28;20028;-66
2021/01/31 00:41:25;;;;;;;2.00;1.65;;;16.30;99.90;;;;;;5070728;28;20039;-66
2021/01/31 00:43:51;;;;;;;2.10;1.88;;;16.30;99.90;;;;;;5071070;28;20036;-66
2021/01/31 00:46:16;;;;;;;2.08;1.88;;;16.30;99.90;;;;;;5071396;28;20524;-66
2021/01/31 00:48:42;;;;;;;2.28;1.88;;;16.30;99.90;;;;;;5069943;28;20024;-66
2021/01/31 00:51:08;;;;;;;3.42;1.70;;;16.30;99.90;;;;;;5071328;28;20380;-65
2021/01/31 00:53:33;;;;;;;2.13;1.92;;;16.30;99.90;;;;;;5071112;28;20024;-65
2021/01/31 00:55:59;;;;;;;3.05;1.80;;;16.20;99.90;;;;;;5071036;28;20029;-66
2021/01/31 00:58:24;;;;;;;2.25;1.85;;;16.20;99.90;;;;;;5071215;28;20473;-66
2021/01/31 01:00:50;;;;;;;1.67;1.35;;;16.20;99.90;;;;;;5071049;28;20033;-65
2021/01/31 01:03:16;;;;;;;2.03;1.55;;;16.20;99.90;;;;;;5071098;28;20055;-65
2021/01/31 01:05:41;;;;;;;3.38;1.58;;;16.20;99.90;;;;;;5070635;28;20020;-66
2021/01/31 01:08:07;;;;;;;3.50;1.70;;;16.20;99.90;;;;;;5071367;28;20029;-66
2021/01/31 01:10:35;;;;;;;2.83;2.08;;;16.20;99.90;;;;;;5070930;28;20092;-64
2021/01/31 01:13:03;;;;;;;2.55;1.92;;;16.20;99.90;;;;;;5071458;28;20534;-64
2021/01/31 01:15:29;;;;;;;3.28;2.00;;;16.20;99.90;;;;;;5071522;28;20029;-65
2021/01/31 01:17:56;;;;;;;2.00;1.67;;;16.20;99.90;;;;;;5070803;28;20495;-65
2021/01/31 01:20:22;;;;;;;2.30;1.70;;;16.10;99.90;;;;;;5069820;28;20372;-65
2021/01/31 01:22:48;;;;;;;2.70;1.83;;;16.20;99.90;;;;;;5070641;28;20033;-64
2021/01/31 01:25:18;;;;;;;2.95;1.90;;;16.10;99.90;;;;;;5071005;28;20024;-65
2021/01/31 01:27:44;;;;;;;3.75;2.10;;;16.10;99.90;;;;;;5070908;28;20376;-65
2021/01/31 01:30:13;;;;;;;2.22;1.70;;;16.10;99.90;;;;;;5070400;28;20067;-65
2021/01/31 01:32:39;;;;;;;2.88;1.80;;;16.10;99.90;;;;;;5070347;28;20028;-65
2021/01/31 01:35:09;;;;;;;2.20;1.90;;;16.10;99.90;;;;;;5070999;28;20020;-64
2021/01/31 01:37:35;;;;;;;4.57;2.05;;;16.10;99.90;;;;;;5070667;28;20025;-64
2021/01/31 01:40:04;;;;;;;2.72;2.03;;;16.10;99.90;;;;;;5071094;28;20528;-64
2021/01/31 01:42:30;;;;;;;3.05;2.00;;;16.10;99.90;;;;;;5071043;28;20038;-65
2021/01/31 01:44:56;;;;;;;6.32;2.20;;;16.10;99.90;;;;;;5070602;28;20028;-64
2021/01/31 01:47:24;;;;;;;2.40;2.10;;;16.10;99.90;;;;;;5070789;28;20036;-66
2021/01/31 01:49:55;;;;;;;3.28;2.28;;;16.00;99.90;;;;;;5070556;28;20134;-65
2021/01/31 01:52:40;;;;;;;2.90;2.00;;;16.00;99.90;;;;;;5070753;28;20031;-66
2021/01/31 01:55:10;;;;;;;2.83;2.00;;;16.00;99.90;;;;;;5070760;28;20020;-65
2021/01/31 01:58:10;;;;;;;2.17;1.98;;;16.00;99.90;;;;;;5070471;28;20120;-64
2021/01/31 02:00:36;;;;;;;2.63;2.38;;;16.00;99.90;;;;;;5067878;28;20044;-65
2021/01/31 02:03:08;;;;;;;2.50;2.03;;;16.00;99.90;;;;;;5070468;28;20037;-62
2021/01/31 02:05:35;;;;;;;4.43;2.20;;;15.90;99.90;;;;;;5070462;28;20095;-65
2021/01/31 02:08:02;;;;;;;2.30;1.83;;;16.00;99.90;;;;;;5073434;28;20031;-65
2021/01/31 02:10:28;;;;;;;3.40;2.03;;;16.00;99.90;;;;;;5074444;28;20024;-66
2021/01/31 02:12:58;;;;;;;2.20;2.00;;;15.90;99.90;;;;;;5073928;28;20028;-67
2021/01/31 02:15:25;;;;;;;2.20;2.00;;;16.00;99.90;;;;;;5074274;28;20361;-67
2021/01/31 02:18:07;;;;;;;2.13;1.80;;;15.90;99.90;;;;;;5073818;28;20027;-67
2021/01/31 02:21:27;;;;;;;3.35;1.85;;;15.90;99.90;;;;;;5073765;28;20016;-66
2021/01/31 02:24:11;;;;;;;2.03;1.70;;;15.90;99.90;;;;;;5031764;28;20033;-67
2021/01/31 02:26:55;;;;;;;1.90;1.70;;;15.90;99.90;;;;;;5073802;28;20032;-67
2021/01/31 02:29:48;;;;;;;2.20;2.00;;;15.90;99.90;;;;;;5073488;28;20488;-67
2021/01/31 02:33:01;;;;;;;2.35;2.03;;;15.90;99.90;;;;;;5073743;28;20492;-67
2021/01/31 02:35:29;;;;;;;2.47;1.85;;;15.90;99.90;;;;;;5011957;28;20418;-67
2021/01/31 02:38:00;;;;;;;2.13;1.92;;;15.90;99.90;;;;;;5066574;28;20060;-67
2021/01/31 02:40:35;;;;;;;2.00;1.80;;;15.80;99.90;;;;;;5073663;28;20060;-67
2021/01/31 02:43:15;;;;;;;1.92;1.65;;;15.80;99.90;;;;;;5073879;28;20037;-67
2021/01/31 02:45:56;;;;;;;2.53;2.05;;;15.90;99.90;;;;;;5072983;28;20031;-68
2021/01/31 02:48:49;;;;;;;2.58;1.88;;;15.80;99.90;;;;;;5073421;28;20024;-67
2021/01/31 02:51:24;;;;;;;2.00;1.80;;;15.80;99.90;;;;;;5073547;28;20119;-67
2021/01/31 02:54:05;;;;;;;3.45;1.75;;;15.80;99.90;;;;;;5073192;28;20025;-67
2021/01/31 02:56:35;;;;;;;2.00;1.80;;;15.80;99.90;;;;;;5073955;28;20372;-67
2021/01/31 02:59:07;;;;;;;3.10;2.17;;;15.80;99.90;;;;;;5073274;28;20013;-66
2021/01/31 03:01:44;;;;;;;2.53;1.80;;;15.80;99.90;;;;;;5072528;28;20401;-67
2021/01/31 03:04:24;;;;;;;2.72;1.92;;;15.80;99.90;;;;;;5072374;28;20358;-67
2021/01/31 03:06:56;;;;;;;3.03;1.88;;;15.80;99.90;;;;;;5072918;28;20048;-66
2021/01/31 03:09:37;;;;;;;2.65;1.77;;;15.80;99.90;;;;;;5073315;28;20389;-67
2021/01/31 03:12:09;;;;;;;4.32;1.88;;;15.80;99.90;;;;;;5072926;28;20488;-66
2021/01/31 03:14:42;;;;;;;2.08;1.50;;;15.80;99.90;;;;;;5072858;28;20033;-67
2021/01/31 03:17:27;;;;;;;4.68;1.92;;;15.80;99.90;;;;;;5072662;28;20028;-66
2021/01/31 03:19:56;;;;;;;;;;;15.80;99.90;;;;;;5073087;28;20439;-65
2021/01/31 03:22:26;;;;;;;3.72;1.80;;;15.70;99.90;;;;;;5072802;28;20010;-65
2021/01/31 03:25:01;;;;;;;2.03;1.63;;;15.80;99.90;;;;;;5072720;28;20020;-66
2021/01/31 03:27:38;;;;;;;3.35;1.85;;;15.70;99.90;;;;;;5072827;28;20039;-67
2021/01/31 03:30:06;;;;;;;3.25;1.60;;;15.70;99.90;;;;;;5072093;28;20039;-65
2021/01/31 03:32:39;;;;;;;2.35;1.90;;;15.70;99.90;;;;;;5072167;28;20426;-63
2021/01/31 03:35:13;;;;;;;2.63;2.15;;;15.70;99.90;;;;;;5072645;28;20025;-65
2021/01/31 03:37:48;;;;;;;2.30;2.00;;;15.70;99.90;;;;;;5072201;28;20093;-64
2021/01/31 03:40:16;;;;;;;2.63;1.90;;;15.70;99.90;;;;;;5072559;28;20029;-66
2021/01/31 03:42:45;;;;;;;1.80;1.50;;;15.70;99.90;;;;;;5072109;28;20037;-66
2021/01/31 03:45:14;;;;;;;2.58;1.80;;;15.70;99.90;;;;;;5072415;28;20461;-65
2021/01/31 03:48:09;;;;;;;2.70;1.85;;;15.70;99.90;;;;;;5072141;28;20032;-65
2021/01/31 03:50:35;;;;;;;2.38;1.65;;;15.70;99.90;;;;;;5063176;28;20405;-65
2021/01/31 03:53:01;;;;;;;3.05;1.60;;;15.70;99.90;;;;;;5072467;28;20074;-66
2021/01/31 03:55:27;;;;;;;3.10;2.03;;;15.70;99.90;;;;;;5072542;28;20078;-65
2021/01/31 03:58:05;;;;;;;3.88;2.20;;;15.60;99.90;;;;;;5071857;28;20095;-66
2021/01/31 04:00:35;;;;;;;4.05;2.03;;;15.60;99.90;;;;;;5072050;28;20036;-65
2021/01/31 04:03:19;;;;;;;4.15;1.60;;;15.60;99.90;;;;;;5072131;28;20079;-66
2021/01/31 04:06:14;;;;;;;2.47;1.95;;;15.60;99.90;;;;;;5071692;28;20048;-66
2021/01/31 04:08:41;;;;;;;2.95;1.80;;;15.60;99.90;;;;;;5071220;28;20037;-66
2021/01/31 04:11:07;;;;;;;2.58;2.05;;;15.60;99.90;;;;;;5071796;28;20029;-65
2021/01/31 04:13:34;;;;;;;2.28;1.73;;;15.60;99.90;;;;;;5071668;28;20031;-65
2021/01/31 04:16:04;;;;;;;2.22;2.00;;;15.60;99.90;;;;;;5072034;28;20470;-66
2021/01/31 04:18:30;;;;;;;1.95;1.70;;;15.60;99.90;;;;;;5071968;28;20441;-65
2021/01/31 04:20:55;;;;;;;1.92;1.73;;;15.50;99.90;;;;;;5071524;28;20060;-65
2021/01/31 04:23:21;;;;;;;2.08;1.88;;;15.50;99.90;;;;;;5071483;28;20044;-65
2021/01/31 04:25:48;;;;;;;2.80;1.80;;;15.60;99.90;;;;;;5071401;28;20028;-65
2021/01/31 04:28:16;;;;;;;1.98;1.77;;;15.50;99.90;;;;;;5071699;28;20032;-65
2021/01/31 04:30:44;;;;;;;1.90;1.70;;;15.50;99.90;;;;;;5069931;28;20039;-66
2021/01/31 04:33:11;;;;;;;1.98;1.75;;;15.50;99.90;;;;;;5071617;28;20040;-66
2021/01/31 04:35:37;;;;;;;2.25;1.83;;;15.50;99.90;;;;;;5071292;28;20115;-65
2021/01/31 04:38:04;;;;;;;2.17;1.60;;;15.50;99.90;;;;;;5071463;28;20169;-66
2021/01/31 04:40:31;;;;;;;2.15;1.95;;;15.50;99.90;;;;;;5071761;28;20029;-66
2021/01/31 04:42:57;;;;;;;2.00;1.77;;;15.50;99.90;;;;;;5070214;28;20145;-65
2021/01/31 04:45:24;;;;;;;2.30;1.88;;;15.50;99.90;;;;;;5071411;28;20055;-65
2021/01/31 04:48:12;;;;;;;2.00;1.75;;;15.50;99.90;;;;;;5071161;28;20033;-65
2021/01/31 04:50:53;;;;;;;3.85;1.90;;;15.50;99.90;;;;;;5071203;28;20021;-65
2021/01/31 04:53:25;;;;;;;3.85;1.90;;;15.50;99.90;;;;;;5071244;28;20016;-65
2021/01/31 04:55:54;;;;;;;2.05;1.77;;;15.40;99.90;;;;;;5071107;28;20078;-65
2021/01/31 04:58:24;;;;;;;2.25;2.05;;;15.40;99.90;;;;;;5071109;28;20052;-64
2021/01/31 05:01:05;;;;;;;2.58;2.00;;;15.40;99.90;;;;;;5051095;28;20024;-66
2021/01/31 05:03:33;;;;;;;2.13;1.60;;;15.40;99.90;;;;;;5057340;28;20116;-65
2021/01/31 05:06:13;;;;;;;2.08;1.65;;;15.40;99.90;;;;;;5071612;28;20499;-66
2021/01/31 05:08:39;;;;;;;2.40;1.73;;;15.40;99.90;;;;;;5070967;28;20035;-66
2021/01/31 05:11:15;;;;;;;1.80;1.70;;;15.40;99.90;;;;;;5071162;28;20427;-66
2021/01/31 05:14:06;;;;;;;2.83;1.92;;;15.40;99.90;;;;;;5070875;28;20025;-66
2021/01/31 05:16:32;;;;;;;1.77;1.50;;;15.40;99.90;;;;;;5071493;28;20106;-66
2021/01/31 05:19:02;;;;;;;2.20;1.90;;;15.40;99.90;;;;;;5071400;28;20060;-66
2021/01/31 05:21:32;;;;;;;2.20;2.00;;;15.40;99.90;;;;;;5071231;28;20531;-67
2021/01/31 05:24:04;;;;;;;2.35;1.90;;;15.40;99.90;;;;;;5071279;28;20047;-66
2021/01/31 05:26:40;;;;;;;3.58;1.80;;;15.30;99.90;;;;;;5071379;28;20075;-67
2021/01/31 05:29:15;;;;;;;2.10;1.70;;;15.30;99.90;;;;;;5070711;28;20088;-65
2021/01/31 05:32:13;;;;;;;2.03;1.70;;;15.30;99.90;;;;;;5070757;28;20028;-66
2021/01/31 05:34:45;;;;;;;2.30;2.10;;;15.30;99.90;;;;;;5068653;28;20039;-64
2021/01/31 05:37:16;;;;;;;2.38;1.95;;;15.30;99.90;;;;;;5071030;28;20037;-66
2021/01/31 05:40:06;;;;;;;2.05;1.75;;;15.30;99.90;;;;;;5070541;28;20017;-65
2021/01/31 05:42:35;;;;;;;2.55;1.95;;;15.30;99.90;;;;;;5054723;28;20382;-61
2021/01/31 05:45:11;;;;;;;2.13;1.90;;;15.30;99.90;;;;;;5074902;28;20036;-66
2021/01/31 05:47:42;;;;;;;2.30;1.80;;;15.30;99.90;;;;;;5074616;28;20379;-65
2021/01/31 05:50:29;;;;;;;4.13;2.10;;;15.30;99.90;;;;;;5074620;28;20024;-66
2021/01/31 05:52:55;;;;;;;1.98;1.85;;;15.20;99.90;;;;;;5074304;28;20026;-65
2021/01/31 05:55:32;;;;;;;3.75;2.05;;;15.20;99.90;;;;;;5074381;28;20030;-66
2021/01/31 05:58:18;;;;;;;2.10;1.90;;;15.30;99.90;;;;;;5074894;28;20028;-66
2021/01/31 06:00:45;;;;;;;2.25;2.05;;;15.20;99.90;;;;;;5072949;28;20021;-66
2021/01/31 06:03:12;;;;;;;3.25;1.88;;;15.20;99.90;;;;;;5073993;28;20507;-65
2021/01/31 06:05:38;;;;;;;4.38;2.28;;;15.20;99.90;;;;;;5073854;28;20024;-66
2021/01/31 06:08:23;;;;;;;2.40;2.00;;;15.20;99.90;;;;;;5074474;28;20031;-66
2021/01/31 06:11:09;;;;;;;2.22;1.98;;;15.20;99.90;;;;;;5073970;28;20427;-67
2021/01/31 06:13:36;;;;;;;2.80;1.90;;;15.20;99.90;;;;;;5073984;28;20033;-66
2021/01/31 06:16:05;;;;;;;2.15;1.95;;;15.20;99.90;;;;;;5074151;28;20052;-62
2021/01/31 06:18:33;;;;;;;4.65;2.10;;;15.20;99.90;;;;;;5074271;28;20024;-66
2021/01/31 06:21:12;;;;;;;2.13;1.73;;;15.20;99.90;;;;;;5074327;28;20020;-66
2021/01/31 06:23:44;;;;;;;2.50;2.10;;;15.20;99.90;;;;;;5073740;28;20480;-65
2021/01/31 06:26:29;;;;;;;5.93;2.15;;;15.20;99.90;;;;;;5072746;28;20028;-65
2021/01/31 06:29:06;;;;;;;2.17;1.98;;;15.20;99.90;;;;;;5073277;28;20032;-65
2021/01/31 06:31:58;;;;;;;2.40;2.20;;;15.10;99.90;;;;;;5073489;28;20155;-64
2021/01/31 06:34:23;;;;;;;3.50;2.13;;;15.20;99.90;;;;;;5073739;28;20024;-66
2021/01/31 06:36:49;;;;;;;2.40;1.98;;;15.10;99.90;;;;;;5073503;28;20146;-65
2021/01/31 06:39:33;;;;;;;2.72;2.10;;;15.10;99.90;;;;;;5073708;28;20020;-66
2021/01/31 06:42:01;;;;;;;;;;;15.10;99.90;;;;;;5074356;28;20098;-65
2021/01/31 06:44:27;;;;;;;2.60;2.20;;;15.10;99.90;;;;;;5073938;28;20368;-65
2021/01/31 06:47:26;;;;;;;2.55;2.10;;;15.10;99.90;;;;;;5073336;28;20048;-66
2021/01/31 06:50:21;;;;;;;3.33;2.05;;;15.10;99.90;;;;;;5073297;28;20025;-66
2021/01/31 06:53:13;;;;;;;3.65;1.90;;;15.10;99.90;;;;;;5072448;28;20028;-65
2021/01/31 06:56:13;;;;;;;2.55;2.00;;;15.10;99.90;;;;;;5072982;28;20453;-65
2021/01/31 06:58:59;;;;;;;2.05;1.85;;;15.10;99.90;;;;;;5072869;28;20082;-66
2021/01/31 07:01:32;;;;;;;3.38;2.10;;;15.10;99.90;;;;;;5073073;28;20098;-65
2021/01/31 07:04:26;;;;;;;3.20;2.30;;;15.10;99.90;;;;;;5073273;28;20066;-66
2021/01/31 07:07:28;;;;;;;2.63;2.15;;;15.00;99.90;;;;;;5073048;28;20032;-65
2021/01/31 07:10:12;;;;;;;2.65;2.05;;;15.10;99.90;;;;;;5072990;28;20024;-65
2021/01/31 07:12:59;;;;;;;2.58;2.10;;;15.10;99.90;;;;;;5072975;28;20035;-65
2021/01/31 07:15:26;;;;;;;2.20;2.00;;;15.10;99.90;;;;;;5073141;28;20037;-66
2021/01/31 07:18:00;;;;;;;2.42;2.08;;;15.10;99.90;;;;;;5072799;28;20037;-66
2021/01/31 07:20:32;;;;;;;2.97;1.88;;;15.10;99.90;;;;;;5073033;28;20025;-65
2021/01/31 07:23:02;;;;;;;2.47;2.15;;;15.10;99.90;;;;;;5073023;28;20526;-65
2021/01/31 07:25:27;;;;;;;5.07;1.88;;;15.10;99.90;;;;;;5073180;28;20024;-65
2021/01/31 07:28:07;;;;;;;3.92;2.20;;;15.10;99.90;;;;;;5072309;28;20108;-65
2021/01/31 07:30:36;;;;;;;2.88;2.25;;;15.10;99.90;;;;;;5072567;28;20037;-63
2021/01/31 07:33:01;;;;;;;2.50;2.03;;;15.10;99.90;;;;;;5072772;28;20419;-61
2021/01/31 07:35:37;;;;;;;2.78;2.17;;;15.10;99.90;;;;;;5072914;28;20092;-65
2021/01/31 07:38:28;;;;;;;2.42;2.20;;;15.00;99.90;;;;;;5072401;28;20033;-65
2021/01/31 07:40:55;;;;;;;2.50;2.00;;;15.00;99.90;;;;;;5072314;28;20016;-65
2021/01/31 07:43:24;;;;;;;2.15;1.85;;;15.10;99.90;;;;;;5072347;28;20029;-65
2021/01/31 07:45:59;;;;;;;3.35;2.03;;;15.00;99.90;;;;;;5072327;28;20020;-65
2021/01/31 07:48:37;;;;;;;5.40;2.10;;;15.00;99.90;;;;;;5072390;28;20111;-65
2021/01/31 07:51:05;;;;;;;2.33;2.00;;;15.10;99.90;;;;;;5072271;28;20016;-65
2021/01/31 07:53:42;;;;;;;2.88;2.10;;;15.00;99.90;;;;;;5072566;28;20020;-65
2021/01/31 07:56:31;;;;;;;2.00;1.70;;;15.10;99.90;;;;;;5071959;28;20031;-65
2021/01/31 07:59:00;;;;;;;2.33;2.03;;;15.10;99.90;;;;;;5072050;28;20070;-64
2021/01/31 08:01:40;;;;;;;2.25;1.95;;;15.00;99.90;;;;;;5071730;28;20381;-65
2021/01/31 08:04:15;;;;;;;2.97;2.00;;;15.00;99.90;;;;;;5072070;28;20494;-64
2021/01/31 08:06:50;;;;;;;3.42;2.05;;;15.00;99.90;;;;;;5071914;28;20075;-64
2021/01/31 08:09:30;;;;;;;3.35;1.92;;;15.00;99.90;;;;;;5071860;28;20032;-62
2021/01/31 08:12:02;;;;;;;2.72;2.45;;;15.10;99.90;;;;;;5071773;28;20111;-68
2021/01/31 08:15:01;;;;;;;2.78;2.45;;;15.00;99.90;;;;;;5072161;28;20092;-68
2021/01/31 08:17:46;;;;;;;3.17;2.72;;;14.90;99.90;;;;;;5072322;28;20029;-65
2021/01/31 08:20:34;;;;;;;3.33;2.65;;;14.80;99.90;;;;;;5071891;28;20104;-64
2021/01/31 08:23:03;;;;;;;2.30;2.00;;;14.80;99.90;;;;;;5071876;28;20485;-63
2021/01/31 08:25:32;;;;;;;2.58;2.20;;;14.80;99.90;;;;;;5071263;28;20149;-64
2021/01/31 08:28:04;;;;;;;2.65;2.25;;;14.80;99.90;;;;;;5071727;28;20120;-73
2021/01/31 08:30:41;;;;;;;3.17;1.98;;;14.80;99.90;;;;;;5071793;28;20032;-71
2021/01/31 08:33:27;;;;;;;5.50;2.80;;;14.90;99.90;;;;;;5071730;28;20045;-65
2021/01/31 08:35:55;;;;;;;7.63;2.10;;;15.20;99.90;;;;;;5071528;28;20024;-69
2021/01/31 08:38:31;;;;;;;11.15;2.28;;;15.60;99.90;;;;;;5071534;28;20021;-73
2021/01/31 08:43:37;;;;;;;6.82;1.63;;;15.80;99.90;;;;;;5071878;28;20532;-74
2021/01/31 08:46:16;;;;;;;5.57;1.92;;;15.80;99.90;;;;;;5071427;28;20099;-69
2021/01/31 08:48:48;;;;;;;2.70;1.80;;;15.80;99.90;;;;;;5071260;28;20028;-70
2021/01/31 08:51:35;;;;;;;2.25;1.63;;;16.00;99.90;;;;;;5071464;28;20099;-71
2021/01/31 08:54:19;;;;;;;3.42;2.13;;;16.10;99.90;;;;;;5071634;28;20503;-70
2021/01/31 08:56:46;;;;;;;3.75;2.30;;;16.10;99.90;;;;;;5051652;28;20036;-70
2021/01/31 08:59:26;;;;;;;4.53;2.10;;;16.10;99.90;;;;;;5070558;28;20040;-61
2021/01/31 09:02:10;;;;;;;5.43;2.05;;;16.20;99.90;;;;;;5068576;28;20442;-64
2021/01/31 09:04:43;;;;;;;2.95;2.10;;;16.20;99.90;;;;;;5069068;28;20025;-69
2021/01/31 09:07:10;;;;;;;3.70;1.83;;;16.30;99.90;;;;;;5071259;28;20036;-68
2021/01/31 09:09:38;;;;;;;4.20;2.38;;;16.40;99.90;;;;;;5071022;28;20548;-72
2021/01/31 09:12:10;;;;;;;5.68;1.90;;;16.50;99.90;;;;;;5070953;28;20035;-69
2021/01/31 09:14:38;;;;;;;5.38;1.90;;;16.50;99.90;;;;;;5070824;28;20070;-72
2021/01/31 09:17:05;;;;;;;11.20;7.65;;;16.50;99.90;;;;;;5073950;28;20491;-71
2021/01/31 09:19:31;;;;;;;12.60;9.07;;;16.00;99.90;;;;;;5075385;28;20060;-71
2021/01/31 09:22:12;;;;;;;8.75;5.30;;;15.00;99.20;;;;;;5075345;28;20121;-70
2021/01/31 09:24:39;;;;;;;6.18;5.20;;;15.20;99.90;;;;;;5074549;28;20043;-66
2021/01/31 09:27:07;;;;;;;9.05;5.47;;;15.60;99.90;;;;;;5075058;28;20032;-69
2021/01/31 09:29:34;;;;;;;6.85;5.25;;;15.80;99.90;;;;;;5074740;28;20384;-67
2021/01/31 09:32:29;;;;;;;8.32;4.72;;;15.90;99.90;;;;;;5074844;28;20045;-67
2021/01/31 09:34:58;;;;;;;10.32;5.32;;;15.90;99.90;;;;;;5074207;28;20158;-68
2021/01/31 09:37:27;;;;;;;9.35;5.18;;;15.90;99.90;;;;;;5074424;28;20153;-68
2021/01/31 09:39:57;;;;;;;8.60;5.30;;;16.00;99.90;;;;;;5074538;28;20020;-68
2021/01/31 09:42:27;;;;;;;17.52;5.57;;;16.10;99.90;;;;;;5074585;28;20037;-71
2021/01/31 09:44:57;;;;;;;10.57;5.40;;;16.10;99.90;;;;;;5074428;28;20067;-71
2021/01/31 09:47:24;;;;;;;6.80;5.13;;;16.10;99.90;;;;;;5074698;28;20389;-71
2021/01/31 09:49:58;;;;;;;6.93;5.07;;;16.20;99.90;;;;;;5074441;28;20422;-70
2021/01/31 09:52:24;;;;;;;8.02;4.70;;;16.20;99.90;;;;;;5074654;28;20021;-61
2021/01/31 09:54:50;;;;;;;12.63;4.70;;;16.40;99.90;;;;;;5072630;28;20358;-59
2021/01/31 09:57:25;;;;;;;7.32;4.18;;;16.70;99.90;;;;;;5073589;28;20030;-58
2021/01/31 10:00:29;;;;;;;6.55;4.30;;;16.70;99.90;;;;;;5074169;28;20016;-59
2021/01/31 10:03:01;;;;;;;7.70;4.97;;;16.60;99.90;;;;;;5068161;28;20044;-60
2021/01/31 10:05:27;;;;;;;9.57;5.85;;;16.60;99.90;;;;;;5074340;28;20017;-59
2021/01/31 10:08:06;;;;;;;15.20;6.45;;;16.50;99.90;;;;;;5074052;28;20090;-60
2021/01/31 10:10:39;;;;;;;17.63;6.25;;;16.50;99.90;;;;;;5074500;28;20067;-59
2021/01/31 10:13:32;;;;;;;15.80;6.82;;;16.50;99.90;;;;;;5074422;28;20108;-60
2021/01/31 10:16:03;;;;;;;10.20;5.75;;;16.40;99.90;;;;;;5074496;28;20020;-58
2021/01/31 10:18:37;;;;;;;13.50;6.47;;;16.40;99.90;;;;;;5074260;28;20032;-58
2021/01/31 10:21:16;;;;;;;;;;;16.30;99.90;;;;;;5074346;28;20103;-59
2021/01/31 10:23:47;;;;;;;13.55;6.28;;;16.20;99.90;;;;;;5073000;28;20395;-58
2021/01/31 10:26:18;;;;;;;10.43;5.72;;;16.30;99.90;;;;;;5053861;28;20024;-58
2021/01/31 10:28:47;;;;;;;8.55;5.95;;;16.30;99.90;;;;;;5052376;28;20055;-60
2021/01/31 10:31:26;;;;;;;7.07;5.30;;;16.40;99.90;;;;;;5053988;28;20017;-59
2021/01/31 10:33:53;;;;;;;5.90;4.93;;;16.40;99.90;;;;;;5053514;28;20119;-60
2021/01/31 10:36:35;;;;;;;7.65;5.30;;;16.50;99.90;;;;;;5053763;28;20095;-59
2021/01/31 10:39:09;;;;;;;7.75;4.97;;;16.50;99.90;;;;;;5054140;28;20094;-59
2021/01/31 10:41:36;;;;;;;9.45;5.25;;;16.50;99.90;;;;;;5053414;28;20033;-59
2021/01/31 10:44:05;;;;;;;8.70;5.82;;;16.40;99.90;;;;;;5053718;28;20116;-60
2021/01/31 10:46:32;;;;;;;7.70;5.10;;;16.30;99.90;;;;;;5053901;28;20029;-60
2021/01/31 10:48:57;;;;;;;7.45;5.07;;;16.30;99.90;;;;;;5053737;28;20074;-59
2021/01/31 10:51:25;;;;;;;9.70;5.35;;;16.20;99.90;;;;;;5053583;28;20029;-59
2021/01/31 10:53:51;;;;;;;8.52;5.07;;;16.20;99.90;;;;;;5060923;28;20028;-59
2021/01/31 10:56:16;;;;;;;10.35;5.40;;;16.10;99.90;;;;;;5073152;28;20126;-62
2021/01/31 10:58:43;;;;;;;6.78;4.60;;;16.10;99.90;;;;;;5072140;28;20032;-63
2021/01/31 11:01:08;;;;;;;7.65;4.80;;;16.10;99.90;;;;;;5072967;28;20107;-67
2021/01/31 11:03:34;;;;;;;7.53;5.00;;;16.10;99.90;;;;;;5072975;28;20159;-60
2021/01/31 11:06:00;;;;;;;7.90;4.88;;;16.00;99.90;;;;;;5073736;28;20070;-63
2021/01/31 11:08:26;;;;;;;5.38;4.70;;;16.00;99.90;;;;;;5073237;28;20090;-64
2021/01/31 11:10:52;;;;;;;7.60;5.22;;;16.00;99.90;;;;;;5072810;28;20546;-66
2021/01/31 11:13:19;;;;;;;8.43;4.82;;;15.90;99.90;;;;;;5073153;28;20464;-63
2021/01/31 11:15:44;;;;;;;9.18;5.13;;;16.00;99.90;;;;;;5072799;28;20029;-64
2021/01/31 11:18:10;;;;;;;10.55;4.70;;;15.90;99.90;;;;;;5072634;28;20078;-61
2021/01/31 11:20:36;;;;;;;10.00;4.93;;;15.90;99.90;;;;;;5072013;28;20040;-64
2021/01/31 11:23:01;;;;;;;8.88;4.93;;;15.90;99.90;;;;;;5072752;28;20137;-59
2021/01/31 11:25:27;;;;;;;7.88;4.50;;;15.90;99.90;;;;;;5072290;28;20016;-65
2021/01/31 11:27:53;;;;;;;8.07;4.90;;;15.90;99.90;;;;;;5072183;28;20107;-64
2021/01/31 11:30:18;;;;;;;6.95;5.10;;;15.80;99.90;;;;;;5072227;28;20056;-64
2021/01/31 11:32:44;;;;;;;14.27;5.22;;;15.80;99.90;;;;;;5071326;28;20403;-64
2021/01/31 11:35:10;;;;;;;9.52;5.00;;;15.80;99.90;;;;;;5057940;28;20520;-70
2021/01/31 11:37:36;;;;;;;7.57;4.90;;;15.80;99.90;;;;;;5064642;28;20078;-69
2021/01/31 11:40:04;;;;;;;11.73;4.95;;;15.80;99.90;;;;;;5070998;28;20032;-64
2021/01/31 11:42:30;;;;;;;6.45;4.65;;;15.80;99.90;;;;;;5071293;28;20051;-67
2021/01/31 11:44:55;;;;;;;6.20;4.72;;;15.80;99.90;;;;;;5070081;28;20032;-69
2021/01/31 11:47:21;;;;;;;6.22;4.50;;;15.80;99.90;;;;;;5071311;28;20358;-62
2021/01/31 11:49:46;;;;;;;8.13;4.55;;;15.80;99.90;;;;;;5071032;28;20021;-65
2021/01/31 11:52:12;;;;;;;6.20;4.95;;;15.80;99.90;;;;;;5071834;28;20035;-64
2021/01/31 11:54:38;;;;;;;7.97;5.13;;;15.90;99.90;;;;;;5070893;28;20485;-67
2021/01/31 11:57:04;;;;;;;8.30;4.70;;;15.90;99.90;;;;;;5071632;28;20024;-66
2021/01/31 11:59:29;;;;;;;6.63;4.78;;;15.90;99.90;;;;;;5070894;28;20025;-66
2021/01/31 12:01:55;;;;;;;6.00;4.78;;;15.90;99.90;;;;;;5070489;28;20075;-65
2021/01/31 12:04:20;;;;;;;7.55;4.40;;;15.90;99.90;;;;;;5071385;28;20021;-65
2021/01/31 12:06:46;;;;;;;6.68;5.18;;;16.00;99.90;;;;;;5070248;28;20033;-66
2021/01/31 12:09:11;;;;;;;7.00;4.60;;;15.90;99.90;;;;;;5069306;28;20024;-63
2021/01/31 12:11:37;;;;;;;5.97;4.20;;;16.00;99.90;;;;;;5085169;28;20024;-62
2021/01/31 12:14:03;;;;;;;7.47;4.65;;;16.00;99.90;;;;;;5071182;28;20358;-63
2021/01/31 12:16:29;;;;;;;5.70;4.20;;;16.00;99.90;;;;;;5067797;28;20049;-63
2021/01/31 12:18:54;;;;;;;6.38;4.45;;;16.00;99.90;;;;;;5069759;28;20021;-63
2021/01/31 12:21:23;;;;;;;5.10;4.20;;;16.00;99.90;;;;;;5073263;28;20022;-64
2021/01/31 12:23:48;;;;;;;9.93;5.13;;;16.00;99.90;;;;;;5072241;28;20040;-65
2021/01/31 12:26:14;;;;;;;6.10;4.53;;;16.00;99.90;;;;;;5079148;28;20040;-63
2021/01/31 12:28:40;;;;;;;6.60;4.60;;;16.00;99.90;;;;;;5069064;28;20039;-62
2021/01/31 12:31:05;;;;;;;6.15;4.63;;;16.00;99.90;;;;;;5068394;28;20463;-63
2021/01/31 12:33:31;;;;;;;6.07;4.22;;;15.90;99.90;;;;;;5069403;28;20025;-65
2021/01/31 12:35:57;;;;;;;10.95;4.20;;;16.00;99.90;;;;;;5070819;28;20104;-63
2021/01/31 12:38:22;;;;;;;6.75;4.40;;;16.00;99.90;;;;;;5070711;28;20099;-64
2021/01/31 12:40:48;;;;;;;6.00;4.50;;;16.00;99.90;;;;;;5070999;28;20666;-66
2021/01/31 12:43:14;;;;;;;5.30;4.40;;;16.00;99.90;;;;;;5070118;28;20102;-65
2021/01/31 12:45:39;;;;;;;6.70;4.30;;;16.10;99.90;;;;;;5070382;28;20027;-65
2021/01/31 12:48:05;;;;;;;5.55;4.10;;;16.10;99.90;;;;;;5070454;28;20460;-66
2021/01/31 12:50:31;;;;;;;6.95;4.20;;;16.10;99.90;;;;;;5069884;28;20032;-66
2021/01/31 12:52:58;;;;;;;6.80;4.00;;;16.30;99.90;;;;;;5070222;28;20032;-66
2021/01/31 12:55:24;;;;;;;6.82;3.85;;;16.30;99.90;;;;;;5068886;28;20427;-67
2021/01/31 12:57:49;;;;;;;8.70;3.97;;;16.40;99.90;;;;;;5070368;28;20063;-66
2021/01/31 13:00:18;;;;;;;5.07;3.80;;;16.50;99.90;;;;;;5081780;28;20053;-67
2021/01/31 13:02:45;;;;;;;5.25;3.75;;;16.60;99.90;;;;;;5074618;28;20063;-65
2021/01/31 13:05:11;;;;;;;4.85;3.85;;;16.60;99.90;;;;;;5070431;28;20107;-65
2021/01/31 13:07:37;;;;;;;4.22;3.25;;;16.70;99.90;;;;;;5069319;28;20029;-65
2021/01/31 13:10:05;;;;;;;5.93;3.78;;;16.70;99.90;;;;;;5071724;28;20373;-67
2021/01/31 13:12:30;;;;;;;4.75;3.28;;;16.80;99.90;;;;;;5068453;28;20036;-66
2021/01/31 13:14:56;;;;;;;4.85;3.50;;;16.80;99.90;;;;;;5071360;28;20089;-64
2021/01/31 13:17:21;;;;;;;3.58;2.92;;;16.90;99.90;;;;;;5069003;28;20500;-64